createdAt,value
2023-04-16T00:02:08.525Z,101054.56
2023-04-16T00:04:52.247Z,101060.28
2023-04-16T00:07:36.314Z,101047.97
2023-04-16T00:10:20.339Z,101043.56
2023-04-16T00:13:04.501Z,101045.63
2023-04-16T00:15:48.900Z,101052.25
2023-04-16T00:18:32.629Z,101055.97
2023-04-16T00:21:16.202Z,101051.38
2023-04-16T00:23:59.772Z,101052.06
2023-04-16T00:26:45.266Z,101047.91
2023-04-16T00:29:31.079Z,101054.97
2023-04-16T00:32:14.788Z,101053.56
2023-04-16T00:34:58.429Z,101058.34
2023-04-16T00:37:42.135Z,101053.41
2023-04-16T00:40:29.262Z,101063.63
2023-04-16T00:43:22.096Z,101070.56
2023-04-16T00:46:07.339Z,101072.31
2023-04-16T00:48:54.190Z,101076.19
2023-04-16T00:51:37.983Z,101068.56
2023-04-16T00:54:22.230Z,101067.94
2023-04-16T00:57:06.745Z,101075.00
2023-04-16T00:59:50.479Z,101072.69
2023-04-16T01:02:35.155Z,101077.47
2023-04-16T01:05:21.658Z,101074.94
2023-04-16T01:08:06.543Z,101075.84
2023-04-16T01:10:50.060Z,101084.53
2023-04-16T01:13:34.130Z,101089.13
2023-04-16T01:16:17.705Z,101088.56
2023-04-16T01:19:01.387Z,101087.13
2023-04-16T01:21:44.978Z,101089.22
2023-04-16T01:24:28.670Z,101093.06
2023-04-16T01:27:12.255Z,101100.91
2023-04-16T01:29:56.461Z,101097.66
2023-04-16T01:32:50.738Z,101097.09
2023-04-16T01:35:34.369Z,101100.44
2023-04-16T01:38:17.950Z,101097.69
2023-04-16T01:41:02.099Z,101098.63
2023-04-16T01:43:45.875Z,101094.66
2023-04-16T01:46:33.505Z,101095.34
2023-04-16T01:49:19.629Z,101099.94
2023-04-16T01:52:03.177Z,101094.53
2023-04-16T01:54:46.853Z,101096.50
2023-04-16T01:57:30.509Z,101100.34
2023-04-16T02:00:14.163Z,101106.66
2023-04-16T02:03:03.977Z,101115.03
2023-04-16T02:05:47.985Z,101117.47
2023-04-16T02:08:31.839Z,101121.56
2023-04-16T02:11:16.243Z,101115.66
2023-04-16T02:14:00.451Z,101129.47
2023-04-16T02:16:44.725Z,101131.31
2023-04-16T02:19:36.068Z,101125.56
2023-04-16T02:22:19.603Z,101129.91
2023-04-16T02:25:04.058Z,101127.19
2023-04-16T02:27:48.266Z,101127.41
2023-04-16T02:30:45.354Z,101132.63
2023-04-16T02:33:32.018Z,101135.38
2023-04-16T03:09:31.846Z,101157.31
2023-04-16T03:12:15.550Z,101157.56
2023-04-16T03:14:59.350Z,101158.31
2023-04-16T03:17:43.206Z,101160.34
2023-04-16T03:20:27.244Z,101167.97
2023-04-16T03:23:11.022Z,101163.19
2023-04-16T03:25:54.588Z,101169.75
2023-04-16T03:28:38.209Z,101171.38
2023-04-16T03:31:24.953Z,101177.22
2023-04-16T03:34:09.056Z,101175.81
2023-04-16T03:36:52.856Z,101176.44
2023-04-16T03:39:36.741Z,101170.72
2023-04-16T03:42:20.535Z,101182.53
2023-04-16T03:45:04.495Z,101177.97
2023-04-16T03:47:53.078Z,101184.34
2023-04-16T03:50:39.975Z,101189.13
2023-04-16T03:53:25.942Z,101189.81
2023-04-16T03:56:12.093Z,101193.47
2023-04-16T03:58:55.915Z,101195.59
2023-04-16T04:01:39.664Z,101206.59
2023-04-16T04:04:26.344Z,101214.09
2023-04-16T04:07:10.139Z,101221.66
2023-04-16T04:09:54.006Z,101221.06
2023-04-16T04:12:38.091Z,101214.88
2023-04-16T04:15:22.671Z,101227.66
2023-04-16T04:18:06.700Z,101229.72
2023-04-16T04:20:50.910Z,101237.25
2023-04-16T04:23:37.753Z,101228.69
2023-04-16T04:26:23.811Z,101229.22
2023-04-16T04:29:17.143Z,101239.16
2023-04-16T04:32:01.713Z,101231.50
2023-04-16T04:34:47.164Z,101233.22
2023-04-16T04:37:31.417Z,101234.13
2023-04-16T04:40:15.768Z,101227.94
2023-04-16T04:43:01.514Z,101228.16
2023-04-16T04:45:46.545Z,101230.13
2023-04-16T04:48:30.751Z,101233.19
2023-04-16T04:51:14.698Z,101231.78
2023-04-16T04:54:00.678Z,101227.72
2023-04-16T04:56:47.555Z,101230.03
2023-04-16T04:59:31.418Z,101230.19
2023-04-16T05:02:15.733Z,101238.44
2023-04-16T05:04:59.609Z,101248.84
2023-04-16T05:07:45.141Z,101252.69
2023-04-16T05:10:29.055Z,101255.22
2023-04-16T05:13:13.205Z,101259.53
2023-04-16T05:15:59.940Z,101263.56
2023-04-16T05:18:44.359Z,101261.44
2023-04-16T05:21:28.832Z,101267.97
2023-04-16T05:24:15.848Z,101275.44
2023-04-16T05:27:00.056Z,101282.41
2023-04-16T05:29:47.646Z,101285.44
2023-04-16T05:32:31.855Z,101283.91
2023-04-16T05:35:17.584Z,101288.03
2023-04-16T05:38:01.904Z,101287.84
2023-04-16T05:40:46.479Z,101299.41
2023-04-16T05:43:33.490Z,101291.66
2023-04-16T05:46:20.287Z,101292.69
2023-04-16T05:49:04.527Z,101300.00
2023-04-16T05:51:51.464Z,101301.66
2023-04-16T05:54:38.096Z,101297.72
2023-04-16T05:57:22.523Z,101300.63
2023-04-16T06:00:10.622Z,101296.22
2023-04-16T06:03:03.130Z,101299.31
2023-04-16T06:05:47.117Z,101299.41
2023-04-16T06:08:31.087Z,101297.91
2023-04-16T06:11:15.307Z,101304.13
2023-04-16T06:13:59.170Z,101302.31
2023-04-16T06:16:43.126Z,101303.97
2023-04-16T06:19:26.783Z,101308.50
2023-04-16T06:22:11.242Z,101307.16
2023-04-16T06:24:55.020Z,101314.53
2023-04-16T06:27:38.966Z,101321.41
2023-04-16T06:30:25.409Z,101330.69
2023-04-16T06:33:09.635Z,101324.44
2023-04-16T06:35:53.425Z,101332.38
2023-04-16T06:38:38.073Z,101326.53
2023-04-16T06:41:23.034Z,101332.19
2023-04-16T06:44:07.371Z,101327.53
2023-04-16T06:46:51.788Z,101326.63
2023-04-16T06:49:41.804Z,101327.47
2023-04-16T06:52:25.879Z,101326.25
2023-04-16T06:55:10.663Z,101328.16
2023-04-16T06:57:54.538Z,101328.63
2023-04-16T07:00:38.354Z,101334.28
2023-04-16T07:03:22.436Z,101325.59
2023-04-16T07:06:06.376Z,101334.00
2023-04-16T07:08:50.159Z,101330.19
2023-04-16T07:11:34.495Z,101328.16
2023-04-16T07:14:18.243Z,101338.00
2023-04-16T07:17:04.329Z,101336.47
2023-04-16T07:19:48.031Z,101341.34
2023-04-16T07:22:31.697Z,101350.81
2023-04-16T07:25:15.493Z,101358.28
2023-04-16T07:27:59.073Z,101354.25
2023-04-16T07:30:42.925Z,101354.94
2023-04-16T07:33:26.784Z,101357.28
2023-04-16T07:36:11.163Z,101366.34
2023-04-16T07:38:54.803Z,101366.50
2023-04-16T07:41:40.032Z,101364.84
2023-04-16T07:44:23.632Z,101369.38
2023-04-16T07:47:07.198Z,101367.88
2023-04-16T07:49:50.848Z,101378.47
2023-04-16T07:52:34.419Z,101371.50
2023-04-16T07:55:18.076Z,101381.69
2023-04-16T07:58:02.899Z,101377.63
2023-04-16T08:00:46.537Z,101378.75
2023-04-16T08:03:30.247Z,101385.19
2023-04-16T08:06:13.912Z,101385.63
2023-04-16T08:08:57.431Z,101390.94
2023-04-16T08:11:41.026Z,101397.41
2023-04-16T08:14:24.599Z,101389.72
2023-04-16T08:17:08.210Z,101395.00
2023-04-16T08:19:51.970Z,101398.50
2023-04-16T08:22:35.865Z,101394.19
2023-04-16T08:25:20.711Z,101400.13
2023-04-16T08:28:04.783Z,101398.22
2023-04-16T08:30:48.401Z,101406.38
2023-04-16T08:33:32.179Z,101408.78
2023-04-16T08:36:15.851Z,101410.22
2023-04-16T08:38:59.493Z,101420.69
2023-04-16T08:41:46.319Z,101419.59
2023-04-16T08:44:37.841Z,101427.56
2023-04-16T08:47:27.477Z,101433.22
2023-04-16T08:50:12.269Z,101430.28
2023-04-16T08:53:08.193Z,101428.28
2023-04-16T08:55:54.706Z,101428.88
2023-04-16T08:58:41.316Z,101434.41
2023-04-16T09:01:27.020Z,101432.78
2023-04-16T09:04:11.562Z,101437.44
2023-04-16T09:06:59.580Z,101440.75
2023-04-16T09:09:45.405Z,101434.03
2023-04-16T09:12:31.528Z,101442.00
2023-04-16T09:15:16.963Z,101449.03
2023-04-16T09:18:01.788Z,101447.72
2023-04-16T09:20:46.965Z,101456.31
2023-04-16T09:23:31.383Z,101455.00
2023-04-16T09:26:15.036Z,101461.84
2023-04-16T09:28:58.728Z,101460.34
2023-04-16T09:32:01.507Z,101456.72
2023-04-16T09:35:03.936Z,101466.78
2023-04-16T09:37:58.323Z,101462.47
2023-04-16T09:40:41.997Z,101460.34
2023-04-16T09:43:27.503Z,101463.44
2023-04-16T09:46:13.007Z,101464.06
2023-04-16T09:48:56.584Z,101471.13
2023-04-16T09:51:51.178Z,101471.41
2023-04-16T09:54:34.741Z,101470.72
2023-04-16T09:57:25.693Z,101468.78
2023-04-16T10:00:11.414Z,101467.69
2023-04-16T10:03:07.801Z,101473.03
2023-04-16T10:05:54.040Z,101466.09
2023-04-16T10:08:37.729Z,101477.28
2023-04-16T10:11:21.973Z,101477.59
2023-04-16T10:14:05.586Z,101473.13
2023-04-16T10:16:49.535Z,101476.22
2023-04-16T10:19:34.249Z,101468.56
2023-04-16T10:22:17.855Z,101470.03
2023-04-16T10:25:02.158Z,101470.81
2023-04-16T10:27:46.674Z,101458.81
2023-04-16T10:30:31.279Z,101463.81
2023-04-16T10:33:19.212Z,101465.03
2023-04-16T10:36:15.644Z,101455.31
2023-04-16T10:39:00.920Z,101458.81
2023-04-16T10:41:45.789Z,101464.25
2023-04-16T10:44:32.129Z,101465.81
2023-04-16T10:47:18.606Z,101468.69
2023-04-16T10:50:02.186Z,101480.88
2023-04-16T10:52:46.258Z,101485.47
2023-04-16T10:55:30.028Z,101481.38
2023-04-16T10:58:36.649Z,101481.22
2023-04-16T11:01:31.966Z,101479.16
2023-04-16T11:04:25.339Z,101481.66
2023-04-16T11:07:14.135Z,101482.28
2023-04-16T11:10:00.284Z,101486.72
2023-04-16T11:12:48.607Z,101484.97
2023-04-16T11:15:33.817Z,101481.31
2023-04-16T11:18:20.349Z,101483.88
2023-04-16T11:21:09.392Z,101484.03
2023-04-16T11:23:53.911Z,101489.53
2023-04-16T11:26:37.462Z,101484.78
2023-04-16T11:29:21.128Z,101492.44
2023-04-16T11:32:04.958Z,101496.97
2023-04-16T11:34:48.568Z,101495.28
2023-04-16T11:37:35.553Z,101492.25
2023-04-16T11:40:19.254Z,101490.44
2023-04-16T11:43:15.995Z,101496.59
2023-04-16T11:46:07.453Z,101491.75
2023-04-16T11:48:56.852Z,101492.88
2023-04-16T11:51:49.894Z,101496.31
2023-04-16T11:54:36.766Z,101498.16
2023-04-16T11:57:31.175Z,101496.91
2023-04-16T12:00:15.943Z,101499.97
2023-04-16T12:02:59.609Z,101491.53
2023-04-16T12:05:43.348Z,101494.00
2023-04-16T12:08:31.089Z,101492.78
2023-04-16T12:11:14.628Z,101489.81
2023-04-16T12:14:11.725Z,101493.16
2023-04-16T12:16:56.406Z,101494.19
2023-04-16T12:19:53.158Z,101489.75
2023-04-16T12:22:46.070Z,101490.91
2023-04-16T12:25:29.919Z,101485.94
2023-04-16T12:28:13.968Z,101490.44
2023-04-16T12:30:57.804Z,101494.03
2023-04-16T12:33:43.997Z,101500.50
2023-04-16T12:36:27.709Z,101503.63
2023-04-16T12:39:12.573Z,101510.06
2023-04-16T12:41:56.328Z,101507.09
2023-04-16T12:44:39.973Z,101510.78
2023-04-16T12:47:23.674Z,101508.50
2023-04-16T12:50:08.160Z,101507.91
2023-04-16T12:52:51.837Z,101515.59
2023-04-16T12:55:35.739Z,101520.53
2023-04-16T12:58:19.346Z,101516.81
2023-04-16T13:01:02.970Z,101517.19
2023-04-16T13:03:47.435Z,101521.66
2023-04-16T13:06:33.895Z,101524.47
2023-04-16T13:09:18.333Z,101525.91
2023-04-16T13:12:01.942Z,101521.84
2023-04-16T13:14:45.699Z,101525.59
2023-04-16T13:17:29.264Z,101535.97
2023-04-16T13:20:12.933Z,101538.03
2023-04-16T13:22:56.858Z,101540.56
2023-04-16T13:25:40.607Z,101544.50
2023-04-16T13:28:24.167Z,101541.78
2023-04-16T13:31:08.114Z,101544.59
2023-04-16T13:33:51.978Z,101546.53
2023-04-16T13:36:35.712Z,101545.31
2023-04-16T13:39:19.700Z,101560.25
2023-04-16T13:42:03.362Z,101551.66
2023-04-16T13:44:49.029Z,101553.97
2023-04-16T13:47:32.663Z,101566.31
2023-04-16T13:50:16.332Z,101553.28
2023-04-16T13:52:59.804Z,101553.38
2023-04-16T13:55:43.734Z,101547.00
2023-04-16T13:58:27.346Z,101546.81
2023-04-16T14:01:12.882Z,101548.41
2023-04-16T14:03:59.795Z,101545.59
2023-04-16T14:06:43.597Z,101558.09
2023-04-16T14:09:27.438Z,101552.47
2023-04-16T14:12:13.495Z,101548.09
2023-04-16T14:14:57.158Z,101557.28
2023-04-16T14:17:43.412Z,101550.16
2023-04-16T14:20:26.962Z,101553.47
2023-04-16T14:23:12.497Z,101560.22
2023-04-16T14:25:57.110Z,101558.41
2023-04-16T14:28:42.006Z,101568.78
2023-04-16T14:31:25.929Z,101563.25
2023-04-16T14:34:11.008Z,101565.38
2023-04-16T14:37:03.531Z,101567.34
2023-04-16T14:39:47.741Z,101567.59
2023-04-16T14:42:33.374Z,101567.50
2023-04-16T14:45:21.173Z,101568.31
2023-04-16T14:48:06.931Z,101564.59
2023-04-16T14:50:50.840Z,101571.34
2023-04-16T14:53:36.252Z,101562.97
2023-04-16T14:56:19.805Z,101556.38
2023-04-16T14:59:03.540Z,101562.06
2023-04-16T15:01:47.334Z,101570.44
2023-04-16T15:04:31.530Z,101562.13
2023-04-16T15:07:15.919Z,101568.09
2023-04-16T15:09:59.556Z,101568.81
2023-04-16T15:12:43.130Z,101570.03
2023-04-16T15:15:26.692Z,101579.22
2023-04-16T15:18:10.718Z,101582.06
2023-04-16T15:20:54.723Z,101589.09
2023-04-16T15:23:38.242Z,101594.38
2023-04-16T15:26:23.473Z,101593.94
2023-04-16T15:29:08.534Z,101591.31
2023-04-16T15:31:52.053Z,101594.53
2023-04-16T15:34:36.085Z,101586.84
2023-04-16T15:37:19.757Z,101587.97
2023-04-16T15:40:05.739Z,101585.25
2023-04-16T15:42:49.566Z,101584.38
2023-04-16T15:45:33.436Z,101590.41
2023-04-16T15:48:17.077Z,101587.78
2023-04-16T15:51:01.037Z,101595.97
2023-04-16T15:53:45.440Z,101594.66
2023-04-16T15:56:29.076Z,101597.97
2023-04-16T15:59:13.146Z,101599.50
2023-04-16T16:01:57.550Z,101605.22
2023-04-16T16:04:46.304Z,101605.34
2023-04-16T16:07:30.006Z,101620.66
2023-04-16T16:10:13.841Z,101611.28
2023-04-16T16:12:57.774Z,101618.34
2023-04-16T16:15:41.624Z,101619.34
2023-04-16T16:18:25.349Z,101621.13
2023-04-16T16:21:08.912Z,101615.78
2023-04-16T16:23:52.463Z,101617.06
2023-04-16T16:26:36.174Z,101622.31
2023-04-16T16:29:19.807Z,101619.66
2023-04-16T16:32:03.483Z,101621.28
2023-04-16T16:34:47.052Z,101624.19
2023-04-16T16:37:30.569Z,101629.28
2023-04-16T16:40:14.125Z,101625.97
2023-04-16T16:42:57.715Z,101613.94
2023-04-16T16:45:41.526Z,101624.56
2023-04-16T16:48:25.089Z,101625.56
2023-04-16T16:51:11.789Z,101622.41
2023-04-16T16:53:55.479Z,101631.66
2023-04-16T16:56:39.057Z,101632.28
2023-04-16T16:59:22.876Z,101624.19
2023-04-16T17:02:07.415Z,101637.25
2023-04-16T17:04:52.012Z,101628.28
2023-04-16T17:07:36.332Z,101635.66
2023-04-16T17:10:22.653Z,101636.84
2023-04-16T17:13:06.242Z,101639.41
2023-04-16T17:15:49.733Z,101636.78
2023-04-16T17:18:34.474Z,101640.34
2023-04-16T17:21:18.131Z,101652.94
2023-04-16T17:24:01.741Z,101648.38
2023-04-16T17:26:45.489Z,101657.13
2023-04-16T17:29:30.573Z,101657.56
2023-04-16T17:32:14.240Z,101666.88
2023-04-16T17:34:59.960Z,101661.88
2023-04-16T17:37:43.509Z,101658.44
2023-04-16T17:40:27.072Z,101673.13
2023-04-16T17:43:10.736Z,101680.66
2023-04-16T17:45:54.350Z,101674.78
2023-04-16T17:48:38.350Z,101687.31
2023-04-16T17:51:22.135Z,101685.00
2023-04-16T17:54:07.399Z,101682.81
2023-04-16T17:56:51.262Z,101688.03
2023-04-16T17:59:34.866Z,101695.00
2023-04-16T18:02:18.898Z,101687.91
2023-04-16T18:05:02.482Z,101698.63
2023-04-16T18:07:47.238Z,101712.03
2023-04-16T18:10:32.862Z,101707.84
2023-04-16T18:13:16.475Z,101712.44
2023-04-16T18:16:00.080Z,101714.75
2023-04-16T18:18:45.006Z,101719.16
2023-04-16T18:21:29.927Z,101720.22
2023-04-16T18:24:13.975Z,101729.72
2023-04-16T18:26:57.669Z,101735.66
2023-04-16T18:29:43.830Z,101738.34
2023-04-16T18:32:31.314Z,101738.19
2023-04-16T18:35:15.056Z,101739.44
2023-04-16T18:37:58.718Z,101736.91
2023-04-16T18:40:42.368Z,101742.00
2023-04-16T18:43:26.496Z,101752.69
2023-04-16T18:46:10.309Z,101755.41
2023-04-16T18:48:54.182Z,101755.31
2023-04-16T18:51:37.861Z,101770.19
2023-04-16T18:54:22.102Z,101774.13
2023-04-16T18:57:05.712Z,101778.16
2023-04-16T18:59:49.316Z,101769.03
2023-04-16T19:02:33.134Z,101770.19
2023-04-16T19:05:16.833Z,101760.47
2023-04-16T19:08:00.495Z,101778.50
2023-04-16T19:10:46.358Z,101772.16
2023-04-16T19:13:30.685Z,101775.75
2023-04-16T19:16:14.213Z,101782.53
2023-04-16T19:18:57.952Z,101780.88
2023-04-16T19:21:41.486Z,101783.84
2023-04-16T19:24:25.090Z,101780.13
2023-04-16T19:27:08.588Z,101781.19
2023-04-16T19:29:52.200Z,101779.22
2023-04-16T19:32:35.992Z,101789.28
2023-04-16T19:35:19.564Z,101775.38
2023-04-16T19:38:03.979Z,101784.41
2023-04-16T19:40:49.036Z,101787.09
2023-04-16T19:43:33.152Z,101789.69
2023-04-16T19:46:16.886Z,101790.56
2023-04-16T19:49:00.460Z,101797.31
2023-04-16T19:51:43.997Z,101792.13
2023-04-16T19:54:27.559Z,101799.81
2023-04-16T19:57:11.146Z,101797.88
2023-04-16T19:59:55.220Z,101793.41
2023-04-16T20:02:38.981Z,101793.31
2023-04-16T20:05:22.577Z,101791.56
2023-04-16T20:08:06.455Z,101797.28
2023-04-16T20:10:50.038Z,101801.88
2023-04-16T20:13:33.729Z,101799.59
2023-04-16T20:16:17.578Z,101801.19
2023-04-16T20:19:04.689Z,101802.06
2023-04-16T20:21:49.978Z,101810.47
2023-04-16T20:24:34.420Z,101804.19
2023-04-16T20:27:19.547Z,101806.78
2023-04-16T20:30:04.250Z,101807.88
2023-04-16T20:32:47.768Z,101807.03
2023-04-16T20:35:31.385Z,101814.63
2023-04-16T20:38:15.007Z,101805.97
2023-04-16T20:41:11.138Z,101815.50
2023-04-16T20:43:54.700Z,101823.66
2023-04-16T20:46:38.899Z,101828.34
2023-04-16T20:49:22.461Z,101822.34
2023-04-16T20:52:07.472Z,101824.78
2023-04-16T20:54:52.456Z,101826.94
2023-04-16T20:57:36.175Z,101836.22
2023-04-16T21:00:20.126Z,101830.56
2023-04-16T21:03:07.023Z,101834.06
2023-04-16T21:05:51.760Z,101830.50
2023-04-16T21:08:35.675Z,101838.50
2023-04-16T21:11:19.279Z,101831.16
2023-04-16T21:14:04.723Z,101827.19
2023-04-16T21:16:48.295Z,101837.44
2023-04-16T21:19:31.812Z,101839.66
2023-04-16T21:22:15.529Z,101841.00
2023-04-16T21:24:59.095Z,101843.78
2023-04-16T21:27:42.736Z,101845.09
2023-04-16T21:30:26.260Z,101845.13
2023-04-16T21:33:11.974Z,101839.94
2023-04-16T21:35:55.831Z,101842.13
2023-04-16T21:38:39.410Z,101840.53
2023-04-16T21:41:23.017Z,101836.53
2023-04-16T21:44:06.574Z,101837.03
2023-04-16T21:46:50.187Z,101839.50
2023-04-16T21:49:33.812Z,101840.81
2023-04-16T21:52:19.999Z,101849.31
2023-04-16T21:55:04.114Z,101840.88
2023-04-16T21:57:47.612Z,101834.31
2023-04-16T22:00:31.236Z,101837.03
2023-04-16T22:03:17.624Z,101843.03
2023-04-16T22:06:01.677Z,101839.84
2023-04-16T22:08:45.621Z,101839.56
2023-04-16T22:11:29.262Z,101845.56
2023-04-16T22:14:14.742Z,101848.00
2023-04-16T22:16:58.893Z,101854.81
2023-04-16T22:19:43.424Z,101855.06
2023-04-16T22:22:27.151Z,101853.97
2023-04-16T22:25:12.004Z,101853.41
2023-04-16T22:27:55.666Z,101852.41
2023-04-16T22:30:39.226Z,101858.59
2023-04-16T22:33:22.744Z,101854.81
2023-04-16T22:36:06.933Z,101852.38
2023-04-16T22:38:50.539Z,101852.41
2023-04-16T22:41:36.080Z,101851.28
2023-04-16T22:44:19.644Z,101857.53
2023-04-16T22:47:03.314Z,101848.66
2023-04-16T22:49:47.802Z,101855.16
2023-04-16T22:52:31.381Z,101852.72
2023-04-16T22:55:14.872Z,101851.28
2023-04-16T22:57:58.402Z,101855.66
2023-04-16T23:00:42.000Z,101854.84
2023-04-16T23:03:26.303Z,101847.78
2023-04-16T23:06:09.877Z,101853.81
2023-04-16T23:08:54.030Z,101842.69
2023-04-16T23:11:37.829Z,101851.63
2023-04-16T23:14:21.444Z,101852.91
2023-04-16T23:17:05.182Z,101853.72
2023-04-16T23:19:48.698Z,101846.72
2023-04-16T23:22:32.414Z,101854.28
2023-04-16T23:25:16.173Z,101851.06
2023-04-16T23:27:59.831Z,101851.81
2023-04-16T23:30:43.369Z,101842.06
2023-04-16T23:33:27.349Z,101840.78
2023-04-16T23:36:10.934Z,101845.72
2023-04-16T23:38:54.505Z,101847.00
2023-04-16T23:41:38.040Z,101847.59
2023-04-16T23:44:21.670Z,101845.97
2023-04-16T23:47:05.549Z,101841.91
2023-04-16T23:49:49.198Z,101847.09
2023-04-16T23:52:32.743Z,101854.97
2023-04-16T23:55:16.500Z,101841.91
2023-04-16T23:58:00.357Z,101838.69
